Etusivu
METAR-TAF:

METAR-TAF

Lentoasemat :

Friday Harbor Airport

Friday Harbor, Washington, Yhdysvallat

Leveyspiiri: 48-31-13N, Pituuspiiri: 123-01-31W, korkeus merenpinnasta: 33 m

Tämänhetkinen sää

Tämä raportti tehtiin 55 minuuttia sitten, kello 00.53 UTC
tyyntä
Lämpötila 4°C
Kosteus 93%
Ilmanpaine 1026 hPa
Näkyvyys: 16.1 km
selkeää

METAR: KFHR 230053Z AUTO 00000KT 10SM CLR 04/03 A3030 RMK AO2 SLP263 T00390033

Aika: 17:48 (01:48 UTC)


TAF: puuttuu

Säähavainnot ja -ennusteet yli 4000 lentoasemalta (METAR- ja TAF-raportit).

Käytössä olevat sääasemat on merkitty karttaan keltaisilla ja punaisilla pisteillä.

Aseta hiiri pisteen päälle nähdäksesi sääaseman nimen.

Klikkaa sitten nähdäksesi säähavainnot ja -ennusteet.

Kartan vaihtaminen: klikkaa mustalla rastilla varustettuja vihreitä pisteitä, niin voit zoomata sisään; viivalla varustettua vihreää pistettä, niin voit zoomata ulos tai vihreitä nuolia, niin pääset viereisille kartoille.


METAR-TAF: